Time;durP1;ratioP1;P1;durP2;ratioP2;P2;SDS_P1;SDS_P2;PMS_P1;PMS_P2;Temp;Humidity;BMP_temperature;BMP_pressure;BME280_temperature;BME280_humidity;BME280_pressure;Samples;Min_cycle;Max_cycle;Signal;HPM_P1;HPM_P2
2023/08/15 00:00:19;;;;;;;2.17;1.05;;;;;;;;;;10321953;28;20038;-84
2023/08/15 00:05:24;;;;;;;4.40;1.17;;;;;;;;;;10322193;28;20121;-84
2023/08/15 00:10:36;;;;;;;2.00;1.10;;;;;;;;;;10321219;28;20039;-85
2023/08/15 00:15:40;;;;;;;0.93;0.90;;;;;;;;;;10318362;28;20140;-83
2023/08/15 00:20:47;;;;;;;5.03;1.00;;;;;;;;;;10360139;28;20057;-83
2023/08/15 00:25:51;;;;;;;1.52;0.95;;;;;;;;;;10365776;28;20061;-83
2023/08/15 00:30:54;;;;;;;1.85;1.20;;;;;;;;;;10356639;28;20141;-83
2023/08/15 00:36:00;;;;;;;1.80;1.00;;;;;;;;;;10362448;28;20042;-83
2023/08/15 00:41:03;;;;;;;1.45;1.00;;;;;;;;;;10353040;28;20046;-83
2023/08/15 00:46:08;;;;;;;1.55;1.10;;;;;;;;;;10328005;28;20073;-83
2023/08/15 00:51:14;;;;;;;1.00;0.70;;;;;;;;;;10352994;28;20828;-82
2023/08/15 00:56:18;;;;;;;5.47;1.20;;;;;;;;;;10319155;28;20073;-83
2023/08/15 01:01:24;;;;;;;2.08;0.73;;;;;;;;;;10343890;28;20054;-82
2023/08/15 01:06:29;;;;;;;1.60;1.13;;;;;;;;;;10324779;28;20047;-83
2023/08/15 01:11:40;;;;;;;1.77;1.13;;;;;;;;;;10346691;28;20114;-84
2023/08/15 01:16:48;;;;;;;2.20;0.88;;;;;;;;;;10348870;28;20046;-83
2023/08/15 01:21:56;;;;;;;5.03;1.10;;;;;;;;;;10340576;28;20058;-83
2023/08/15 01:27:00;;;;;;;1.25;0.90;;;;;;;;;;10353437;28;20125;-82
2023/08/15 01:32:10;;;;;;;2.95;0.98;;;;;;;;;;10327566;28;20092;-82
2023/08/15 01:37:20;;;;;;;1.23;0.82;;;;;;;;;;10353901;28;20506;-83
2023/08/15 01:42:26;;;;;;;4.20;1.05;;;;;;;;;;10344431;28;20093;-84
2023/08/15 01:47:32;;;;;;;0.95;0.80;;;;;;;;;;10351043;28;20049;-83
2023/08/15 01:52:35;;;;;;;1.30;0.90;;;;;;;;;;10340045;28;20116;-83
2023/08/15 01:57:40;;;;;;;2.05;1.17;;;;;;;;;;10345179;28;20129;-82
2023/08/15 02:02:43;;;;;;;3.03;0.85;;;;;;;;;;10321057;28;20065;-83
2023/08/15 02:07:48;;;;;;;1.95;0.65;;;;;;;;;;10370223;28;20515;-83
2023/08/15 02:12:53;;;;;;;3.05;0.85;;;;;;;;;;10316729;28;20042;-83
2023/08/15 02:17:56;;;;;;;1.52;0.90;;;;;;;;;;10346564;28;20466;-83
2023/08/15 02:22:59;;;;;;;1.35;0.90;;;;;;;;;;10332995;28;20501;-83
2023/08/15 02:28:04;;;;;;;3.75;0.98;;;;;;;;;;10327409;28;20038;-84
2023/08/15 02:33:08;;;;;;;1.10;0.90;;;;;;;;;;10341772;28;20745;-85
2023/08/15 02:38:12;;;;;;;2.50;0.98;;;;;;;;;;10335641;28;20057;-85
2023/08/15 02:43:16;;;;;;;2.17;0.95;;;;;;;;;;10357743;28;20504;-84
2023/08/15 02:48:20;;;;;;;3.55;1.23;;;;;;;;;;10354989;28;20038;-84
2023/08/15 02:53:23;;;;;;;1.58;1.30;;;;;;;;;;10340420;28;20042;-85
2023/08/15 02:58:28;;;;;;;1.52;1.02;;;;;;;;;;10353509;28;20758;-85
2023/08/15 03:03:31;;;;;;;1.70;1.17;;;;;;;;;;10313192;28;20065;-85
2023/08/15 03:08:35;;;;;;;1.00;1.00;;;;;;;;;;10354186;28;20066;-85
2023/08/15 03:13:40;;;;;;;2.63;1.17;;;;;;;;;;10350552;28;20065;-85
2023/08/15 03:18:44;;;;;;;1.60;1.00;;;;;;;;;;10360388;28;20038;-85
2023/08/15 03:23:47;;;;;;;1.70;1.02;;;;;;;;;;10327737;28;20049;-85
2023/08/15 03:28:52;;;;;;;2.92;1.20;;;;;;;;;;10342083;28;20046;-85
2023/08/15 03:33:57;;;;;;;5.88;3.20;;;;;;;;;;10331770;28;20042;-85
2023/08/15 03:39:00;;;;;;;3.38;1.80;;;;;;;;;;10357271;28;20039;-86
2023/08/15 03:44:06;;;;;;;1.60;1.17;;;;;;;;;;10368368;28;20041;-87
2023/08/15 03:49:09;;;;;;;2.22;1.27;;;;;;;;;;10389908;28;20041;-86
2023/08/15 03:54:13;;;;;;;1.30;0.80;;;;;;;;;;10380555;28;20126;-86
2023/08/15 03:59:18;;;;;;;1.00;0.60;;;;;;;;;;10389483;28;20037;-86
2023/08/15 04:04:21;;;;;;;1.27;0.40;;;;;;;;;;10392253;28;20075;-85
2023/08/15 04:09:25;;;;;;;0.35;0.30;;;;;;;;;;10392521;28;20053;-85
2023/08/15 04:14:29;;;;;;;5.85;0.60;;;;;;;;;;10387131;28;20100;-85
2023/08/15 04:19:33;;;;;;;1.03;0.40;;;;;;;;;;10395713;28;20126;-89
2023/08/15 04:24:36;;;;;;;0.43;0.20;;;;;;;;;;10390298;28;20480;-89
2023/08/15 04:29:41;;;;;;;0.30;0.30;;;;;;;;;;10400804;28;20045;-89
2023/08/15 04:34:44;;;;;;;0.15;0.10;;;;;;;;;;10400641;28;20037;-90
2023/08/15 04:39:49;;;;;;;0.38;0.30;;;;;;;;;;10414636;28;20042;-90
2023/08/15 04:44:54;;;;;;;1.38;0.35;;;;;;;;;;10395409;28;20034;-88
2023/08/15 04:49:57;;;;;;;0.40;0.30;;;;;;;;;;10393602;28;20092;-87
2023/08/15 04:55:00;;;;;;;0.30;0.30;;;;;;;;;;10402709;28;20045;-86
2023/08/15 05:00:08;;;;;;;0.40;0.30;;;;;;;;;;10388494;28;20063;-87
2023/08/15 05:05:12;;;;;;;0.57;0.30;;;;;;;;;;10396050;28;20585;-87
2023/08/15 05:10:18;;;;;;;0.65;0.43;;;;;;;;;;10394362;28;20132;-86
2023/08/15 05:15:23;;;;;;;2.83;0.40;;;;;;;;;;10393883;28;20050;-86
2023/08/15 05:20:34;;;;;;;0.47;0.30;;;;;;;;;;10391826;28;20048;-86
2023/08/15 05:25:43;;;;;;;0.87;0.30;;;;;;;;;;10389415;28;20116;-86
2023/08/15 05:30:49;;;;;;;0.52;0.20;;;;;;;;;;10387654;28;20084;-86
2023/08/15 05:35:53;;;;;;;0.40;0.30;;;;;;;;;;10387397;28;20045;-86
2023/08/15 05:40:56;;;;;;;1.85;0.30;;;;;;;;;;10392731;28;20049;-86
2023/08/15 05:46:01;;;;;;;1.30;0.30;;;;;;;;;;10386224;28;20467;-86
2023/08/15 05:51:04;;;;;;;0.20;0.10;;;;;;;;;;10385758;28;20115;-86
2023/08/15 05:56:08;;;;;;;0.20;0.20;;;;;;;;;;10385267;28;20076;-86
2023/08/15 06:01:17;;;;;;;0.32;0.20;;;;;;;;;;10389963;28;20069;-86
2023/08/15 06:06:22;;;;;;;0.43;0.25;;;;;;;;;;10390979;28;20057;-89
2023/08/15 06:11:28;;;;;;;0.73;0.20;;;;;;;;;;10400886;28;20038;-85
2023/08/15 06:16:33;;;;;;;0.17;0.15;;;;;;;;;;10394248;28;20560;-85
2023/08/15 06:21:36;;;;;;;0.15;0.15;;;;;;;;;;10395473;28;22322;-86
2023/08/15 06:26:47;;;;;;;0.20;0.10;;;;;;;;;;10389086;28;20045;-85
2023/08/15 06:31:53;;;;;;;1.75;0.30;;;;;;;;;;10414579;28;20049;-86
2023/08/15 06:36:58;;;;;;;0.35;0.30;;;;;;;;;;10394555;28;20049;-88
2023/08/15 06:42:02;;;;;;;1.85;0.10;;;;;;;;;;10396435;28;20118;-88
2023/08/15 06:47:09;;;;;;;0.57;0.30;;;;;;;;;;10390228;28;20476;-85
2023/08/15 06:52:12;;;;;;;0.40;0.30;;;;;;;;;;10389967;28;20045;-87
2023/08/15 06:57:16;;;;;;;0.65;0.20;;;;;;;;;;10404763;28;20052;-86
2023/08/15 07:02:21;;;;;;;0.30;0.10;;;;;;;;;;10390664;28;20199;-86
2023/08/15 07:07:24;;;;;;;1.27;0.30;;;;;;;;;;10390958;28;20123;-87
2023/08/15 07:12:30;;;;;;;0.57;0.32;;;;;;;;;;10393609;28;20041;-85
2023/08/15 07:17:35;;;;;;;0.10;0.10;;;;;;;;;;10389669;28;20056;-87
2023/08/15 07:22:39;;;;;;;0.80;0.28;;;;;;;;;;10405439;28;20545;-86
2023/08/15 07:27:46;;;;;;;0.17;0.13;;;;;;;;;;10385986;28;20049;-86
2023/08/15 07:32:51;;;;;;;0.22;0.15;;;;;;;;;;10385472;28;20037;-86
2023/08/15 07:37:57;;;;;;;0.32;0.20;;;;;;;;;;10410412;28;20042;-86
2023/08/15 07:43:01;;;;;;;1.75;0.20;;;;;;;;;;10389700;28;20083;-86
2023/08/15 07:48:06;;;;;;;0.10;0.10;;;;;;;;;;10398240;28;20042;-86
2023/08/15 07:53:09;;;;;;;1.65;0.20;;;;;;;;;;10392081;28;20052;-85
2023/08/15 07:58:13;;;;;;;0.50;0.15;;;;;;;;;;10382591;28;20076;-85
2023/08/15 08:03:17;;;;;;;0.20;0.20;;;;;;;;;;10387991;28;20057;-86
2023/08/15 08:08:23;;;;;;;0.10;0.05;;;;;;;;;;10384879;28;20557;-86
2023/08/15 08:13:26;;;;;;;0.45;0.20;;;;;;;;;;10385185;28;20107;-85
2023/08/15 08:18:31;;;;;;;0.20;0.20;;;;;;;;;;10403743;28;20463;-85
2023/08/15 08:23:34;;;;;;;0.20;0.20;;;;;;;;;;10398078;28;20096;-84
2023/08/15 08:28:37;;;;;;;0.38;0.20;;;;;;;;;;10385578;28;20051;-86
2023/08/15 08:33:42;;;;;;;0.20;0.20;;;;;;;;;;10387916;28;20051;-85
2023/08/15 08:38:45;;;;;;;0.20;0.20;;;;;;;;;;10390374;28;20099;-85
2023/08/15 08:43:51;;;;;;;1.38;0.30;;;;;;;;;;10383274;28;20061;-85
2023/08/15 08:48:56;;;;;;;;;;;;;;;;;;10387525;28;20035;-85
2023/08/15 08:54:00;;;;;;;0.37;0.27;;;;;;;;;;10391465;28;19920;-85
2023/08/15 08:59:08;;;;;;;0.98;0.17;;;;;;;;;;10397576;28;20396;-85
2023/08/15 09:04:13;;;;;;;0.15;0.15;;;;;;;;;;10400269;28;20041;-85
2023/08/15 09:09:17;;;;;;;0.20;0.20;;;;;;;;;;10390894;28;20045;-86
2023/08/15 09:14:21;;;;;;;0.20;0.20;;;;;;;;;;10390586;28;20057;-86
2023/08/15 09:47:33;;;;;;;0.70;0.40;;;;;;;;;;10378691;28;20049;-85
2023/08/15 09:52:43;;;;;;;0.35;0.30;;;;;;;;;;10367357;28;20053;-84
2023/08/15 09:57:47;;;;;;;1.15;0.50;;;;;;;;;;10377363;28;20447;-85
2023/08/15 10:02:56;;;;;;;0.43;0.43;;;;;;;;;;10364403;28;20442;-85
2023/08/15 11:23:45;;;;;;;1.45;0.60;;;;;;;;;;10180033;28;20129;-86
2023/08/15 11:28:49;;;;;;;0.70;0.60;;;;;;;;;;10331351;28;20144;-85
2023/08/15 11:34:00;;;;;;;0.68;0.55;;;;;;;;;;10375069;28;20583;-83
2023/08/15 11:39:05;;;;;;;1.27;0.60;;;;;;;;;;10361403;28;20790;-83
2023/08/15 11:44:11;;;;;;;0.60;0.47;;;;;;;;;;10370584;28;20453;-83
2023/08/15 11:49:17;;;;;;;0.98;0.70;;;;;;;;;;10357922;28;20045;-83
2023/08/15 11:54:32;;;;;;;1.42;0.68;;;;;;;;;;10381993;28;20049;-83
2023/08/15 11:59:38;;;;;;;2.67;0.70;;;;;;;;;;10363725;28;20049;-83
2023/08/15 12:04:42;;;;;;;0.80;0.80;;;;;;;;;;10352815;28;20045;-83
2023/08/15 12:09:53;;;;;;;1.52;0.65;;;;;;;;;;10348701;28;20077;-83
2023/08/15 12:14:58;;;;;;;0.50;0.40;;;;;;;;;;10367411;28;20046;-84
2023/08/15 12:20:04;;;;;;;;;;;;;;;;;;10346757;28;20089;-84
2023/08/15 12:25:13;;;;;;;0.82;0.60;;;;;;;;;;10352040;28;19954;-83
2023/08/15 12:30:19;;;;;;;0.85;0.60;;;;;;;;;;10365225;28;20146;-83
2023/08/15 12:35:26;;;;;;;0.70;0.70;;;;;;;;;;10384011;28;20080;-84
2023/08/15 12:40:31;;;;;;;0.75;0.50;;;;;;;;;;10366140;28;20057;-83
2023/08/15 12:45:36;;;;;;;0.47;0.40;;;;;;;;;;10362115;28;20042;-84
2023/08/15 12:50:41;;;;;;;0.73;0.40;;;;;;;;;;10343508;28;20550;-84
2023/08/15 12:55:50;;;;;;;1.33;0.50;;;;;;;;;;10339722;28;20049;-84
2023/08/15 13:00:55;;;;;;;1.08;0.80;;;;;;;;;;10369342;28;20296;-84
2023/08/15 13:06:12;;;;;;;1.48;0.55;;;;;;;;;;10380738;28;20725;-84
2023/08/15 13:11:19;;;;;;;0.85;0.57;;;;;;;;;;10366022;28;20058;-84
2023/08/15 13:16:23;;;;;;;1.85;0.98;;;;;;;;;;10386015;28;20641;-84
2023/08/15 13:21:30;;;;;;;0.88;0.68;;;;;;;;;;10361702;28;20703;-90
2023/08/15 13:26:36;;;;;;;1.05;0.70;;;;;;;;;;10390460;28;20049;-85
2023/08/15 13:31:45;;;;;;;0.60;0.60;;;;;;;;;;10373215;28;20049;-85
2023/08/15 13:36:49;;;;;;;0.63;0.63;;;;;;;;;;10394496;28;20290;-85
2023/08/15 13:41:56;;;;;;;1.35;0.70;;;;;;;;;;10376026;28;20045;-84
2023/08/15 13:47:13;;;;;;;1.27;1.15;;;;;;;;;;10371165;28;20469;-83
2023/08/15 13:52:17;;;;;;;0.77;0.68;;;;;;;;;;10367627;28;20038;-84
2023/08/15 13:57:22;;;;;;;0.40;0.40;;;;;;;;;;10372986;28;20156;-84
2023/08/15 14:02:25;;;;;;;1.10;0.73;;;;;;;;;;10400332;28;20511;-84
2023/08/15 14:07:33;;;;;;;1.55;0.95;;;;;;;;;;10366853;28;20053;-84
2023/08/15 14:12:37;;;;;;;2.97;1.17;;;;;;;;;;10384190;28;20049;-84
2023/08/15 14:17:41;;;;;;;0.93;0.87;;;;;;;;;;10358048;28;20057;-85
2023/08/15 14:22:44;;;;;;;1.80;0.52;;;;;;;;;;10374237;28;20046;-84
2023/08/15 14:27:49;;;;;;;0.85;0.60;;;;;;;;;;10365335;28;20045;-84
2023/08/15 14:32:55;;;;;;;1.00;0.63;;;;;;;;;;10384022;28;20065;-83
2023/08/15 14:37:58;;;;;;;1.30;0.60;;;;;;;;;;10355334;28;20045;-83
2023/08/15 14:43:03;;;;;;;1.30;0.70;;;;;;;;;;10371002;28;20491;-84
2023/08/15 14:48:07;;;;;;;0.70;0.70;;;;;;;;;;10368077;28;20044;-84
2023/08/15 14:53:10;;;;;;;2.10;0.70;;;;;;;;;;10389440;28;20046;-84
2023/08/15 14:58:20;;;;;;;1.52;0.80;;;;;;;;;;10393727;28;20041;-84
2023/08/15 15:03:24;;;;;;;0.40;0.40;;;;;;;;;;10380303;28;20095;-84
2023/08/15 15:08:28;;;;;;;0.68;0.40;;;;;;;;;;10378228;28;20406;-85
2023/08/15 15:13:34;;;;;;;0.43;0.40;;;;;;;;;;10395926;28;20079;-84
2023/08/15 15:18:37;;;;;;;2.10;0.52;;;;;;;;;;10379627;28;20046;-85
2023/08/15 15:23:41;;;;;;;0.68;0.60;;;;;;;;;;10365857;28;20034;-84
2023/08/15 15:28:46;;;;;;;0.80;0.52;;;;;;;;;;10382670;28;20547;-84
2023/08/15 15:33:49;;;;;;;0.77;0.70;;;;;;;;;;10399644;28;20044;-85
2023/08/15 15:38:54;;;;;;;0.40;0.40;;;;;;;;;;10375529;28;20045;-85
2023/08/15 15:43:59;;;;;;;0.40;0.30;;;;;;;;;;10407119;28;20045;-86
2023/08/15 15:49:03;;;;;;;0.43;0.40;;;;;;;;;;10379475;28;20042;-86
2023/08/15 15:59:34;;;;;;;0.30;0.30;;;;;;;;;;10366836;28;20532;-86
2023/08/15 16:04:38;;;;;;;0.50;0.47;;;;;;;;;;10368426;28;20080;-86
2023/08/15 16:09:41;;;;;;;1.10;0.50;;;;;;;;;;10377760;28;20561;-85
2023/08/15 16:14:47;;;;;;;0.50;0.50;;;;;;;;;;10353788;28;20046;-86
2023/08/15 16:19:51;;;;;;;0.52;0.40;;;;;;;;;;10388430;28;20050;-86
2023/08/15 16:24:55;;;;;;;0.98;0.50;;;;;;;;;;10352142;28;20042;-85
2023/08/15 16:30:00;;;;;;;0.70;0.50;;;;;;;;;;10358472;28;20064;-86
2023/08/15 16:35:09;;;;;;;0.47;0.38;;;;;;;;;;10393998;28;20041;-85
2023/08/15 16:40:13;;;;;;;1.00;0.80;;;;;;;;;;10357196;28;20042;-85
2023/08/15 16:45:18;;;;;;;1.05;0.95;;;;;;;;;;10352987;28;20395;-86
2023/08/15 16:50:24;;;;;;;0.80;0.70;;;;;;;;;;10353728;28;20042;-85
2023/08/15 16:55:28;;;;;;;1.10;0.98;;;;;;;;;;10371299;28;20050;-86
2023/08/15 17:00:33;;;;;;;1.45;1.13;;;;;;;;;;10374456;28;20053;-86
2023/08/15 17:05:37;;;;;;;1.17;1.00;;;;;;;;;;10378493;28;20136;-85
2023/08/15 17:10:41;;;;;;;2.03;1.50;;;;;;;;;;10370601;28;20053;-86
2023/08/15 17:15:48;;;;;;;1.63;1.23;;;;;;;;;;10375300;28;20041;-86
2023/08/15 17:20:51;;;;;;;1.17;1.08;;;;;;;;;;10387776;28;20080;-85
2023/08/15 17:25:55;;;;;;;0.85;0.60;;;;;;;;;;10379039;28;20499;-85
2023/08/15 17:31:00;;;;;;;0.63;0.57;;;;;;;;;;10380708;28;20496;-86
2023/08/15 17:36:05;;;;;;;1.60;0.77;;;;;;;;;;10362847;28;20085;-86
2023/08/15 17:41:08;;;;;;;2.35;0.70;;;;;;;;;;10356353;28;20499;-87
2023/08/15 17:46:14;;;;;;;2.22;0.93;;;;;;;;;;10350465;28;20045;-87
2023/08/15 17:51:19;;;;;;;0.73;0.65;;;;;;;;;;10394899;28;20137;-86
2023/08/15 17:56:23;;;;;;;0.50;0.50;;;;;;;;;;10366052;28;20525;-87
2023/08/15 18:01:30;;;;;;;0.93;0.70;;;;;;;;;;10349194;28;20045;-86
2023/08/15 18:06:45;;;;;;;2.08;1.52;;;;;;;;;;10375724;28;20124;-87
2023/08/15 18:11:49;;;;;;;1.20;1.08;;;;;;;;;;10380528;28;20065;-87
2023/08/15 18:16:57;;;;;;;0.85;0.65;;;;;;;;;;10395920;28;20060;-87
2023/08/15 18:22:02;;;;;;;0.88;0.80;;;;;;;;;;10378752;28;20137;-87
2023/08/15 18:27:06;;;;;;;0.95;0.70;;;;;;;;;;10380638;23;20056;-84
2023/08/15 18:32:11;;;;;;;0.80;0.68;;;;;;;;;;10342600;28;20050;-85
2023/08/15 18:37:15;;;;;;;2.15;0.70;;;;;;;;;;10363678;28;20111;-85
2023/08/15 18:42:18;;;;;;;1.77;0.82;;;;;;;;;;10343144;28;20109;-84
2023/08/15 18:47:23;;;;;;;1.48;0.77;;;;;;;;;;10345294;28;20444;-84
2023/08/15 18:52:28;;;;;;;1.77;1.13;;;;;;;;;;10341098;28;20112;-84
2023/08/15 18:57:32;;;;;;;0.47;0.47;;;;;;;;;;10342622;28;20100;-85
2023/08/15 19:02:36;;;;;;;5.63;1.00;;;;;;;;;;10356949;28;20046;-85
2023/08/15 19:07:40;;;;;;;2.33;0.90;;;;;;;;;;10341093;28;20510;-85
2023/08/15 19:12:43;;;;;;;1.40;0.80;;;;;;;;;;10356134;28;20050;-86
2023/08/15 19:17:49;;;;;;;0.93;0.60;;;;;;;;;;10343347;28;20136;-88
2023/08/15 19:22:53;;;;;;;1.45;0.50;;;;;;;;;;10341642;28;20504;-86
2023/08/15 19:27:56;;;;;;;0.82;0.65;;;;;;;;;;10358600;28;20069;-87
2023/08/15 19:33:01;;;;;;;0.70;0.70;;;;;;;;;;10356842;28;20115;-86
2023/08/15 19:38:08;;;;;;;0.80;0.80;;;;;;;;;;10366397;28;20048;-86
2023/08/15 19:43:12;;;;;;;1.50;0.73;;;;;;;;;;10356020;28;20054;-87
2023/08/15 19:48:16;;;;;;;0.73;0.60;;;;;;;;;;10359079;28;20256;-86
2023/08/15 19:53:20;;;;;;;1.00;0.90;;;;;;;;;;10340161;28;20054;-86
2023/08/15 19:58:24;;;;;;;1.35;0.80;;;;;;;;;;10342284;28;20331;-87
2023/08/15 20:03:29;;;;;;;1.88;0.90;;;;;;;;;;10357094;28;20046;-86
2023/08/15 20:08:32;;;;;;;1.00;0.67;;;;;;;;;;10360220;28;20042;-86
2023/08/15 20:13:36;;;;;;;1.63;0.82;;;;;;;;;;10339247;28;20240;-86
2023/08/15 20:18:41;;;;;;;1.63;0.70;;;;;;;;;;10357882;28;20453;-85
2023/08/15 20:23:44;;;;;;;1.23;0.90;;;;;;;;;;10344837;28;20448;-85
2023/08/15 20:28:47;;;;;;;1.02;0.68;;;;;;;;;;10341103;28;20108;-86
2023/08/15 20:33:53;;;;;;;1.77;0.70;;;;;;;;;;10325992;28;20529;-85
2023/08/15 20:38:56;;;;;;;1.50;0.73;;;;;;;;;;10355050;28;20049;-86
2023/08/15 20:44:00;;;;;;;1.10;0.80;;;;;;;;;;10359522;28;20041;-85
2023/08/15 20:49:05;;;;;;;1.08;0.82;;;;;;;;;;10346424;28;20410;-86
2023/08/15 20:54:08;;;;;;;2.60;1.13;;;;;;;;;;10340068;28;20046;-86
2023/08/15 20:59:12;;;;;;;1.13;0.90;;;;;;;;;;10357435;28;20125;-86
2023/08/15 21:04:17;;;;;;;1.48;0.82;;;;;;;;;;10340624;28;20134;-86
2023/08/15 21:09:21;;;;;;;1.70;0.93;;;;;;;;;;10360165;28;20038;-86
2023/08/15 21:14:24;;;;;;;1.90;1.00;;;;;;;;;;10338991;28;20117;-86
2023/08/15 21:19:29;;;;;;;1.23;0.80;;;;;;;;;;10339166;28;20054;-86
2023/08/15 21:24:34;;;;;;;2.08;0.70;;;;;;;;;;10355825;28;20546;-86
2023/08/15 21:29:37;;;;;;;2.05;0.98;;;;;;;;;;10338190;28;20073;-86
2023/08/15 21:34:42;;;;;;;0.77;0.65;;;;;;;;;;10336001;28;20048;-86
2023/08/15 21:39:46;;;;;;;2.75;1.08;;;;;;;;;;10355993;28;20149;-85
2023/08/15 21:44:49;;;;;;;1.63;1.10;;;;;;;;;;10337862;28;20079;-84
2023/08/15 21:49:54;;;;;;;1.10;0.90;;;;;;;;;;10360193;28;20042;-85
2023/08/15 21:54:57;;;;;;;1.27;0.82;;;;;;;;;;10346620;28;20129;-86
2023/08/15 22:00:01;;;;;;;0.73;0.73;;;;;;;;;;10346301;28;20130;-85
2023/08/15 22:05:15;;;;;;;2.97;0.90;;;;;;;;;;10362805;28;20041;-86
2023/08/15 22:10:21;;;;;;;0.98;0.73;;;;;;;;;;10348884;28;20438;-85
2023/08/15 22:15:26;;;;;;;1.60;0.75;;;;;;;;;;10365611;28;20128;-85
2023/08/15 22:20:31;;;;;;;2.73;0.63;;;;;;;;;;10345484;28;20046;-86
2023/08/15 22:25:35;;;;;;;3.42;0.52;;;;;;;;;;10345968;28;20045;-86
2023/08/15 22:30:38;;;;;;;0.75;0.70;;;;;;;;;;10346556;28;20474;-86
2023/08/15 22:35:43;;;;;;;2.45;0.70;;;;;;;;;;10363424;28;20095;-86
2023/08/15 22:40:47;;;;;;;0.57;0.45;;;;;;;;;;10363366;28;20041;-85
2023/08/15 22:45:50;;;;;;;3.70;1.23;;;;;;;;;;10346175;28;20084;-87
2023/08/15 22:50:55;;;;;;;1.00;0.60;;;;;;;;;;10361960;28;20038;-85
2023/08/15 22:56:02;;;;;;;1.25;0.80;;;;;;;;;;10343136;28;20519;-87
2023/08/15 23:01:06;;;;;;;1.13;0.73;;;;;;;;;;10349896;28;20096;-87
2023/08/15 23:06:11;;;;;;;2.28;0.90;;;;;;;;;;10362230;28;20038;-86
2023/08/15 23:11:17;;;;;;;1.30;0.73;;;;;;;;;;10360562;28;20112;-88
2023/08/15 23:16:20;;;;;;;0.90;0.75;;;;;;;;;;10360665;28;20673;-86
2023/08/15 23:21:25;;;;;;;2.78;0.60;;;;;;;;;;10358040;28;20261;-84
2023/08/15 23:26:28;;;;;;;1.48;0.60;;;;;;;;;;10340145;28;20130;-86
2023/08/15 23:31:33;;;;;;;2.63;0.57;;;;;;;;;;10343739;28;20066;-85
2023/08/15 23:36:38;;;;;;;1.42;0.70;;;;;;;;;;10342076;28;20100;-85
2023/08/15 23:41:42;;;;;;;2.88;0.50;;;;;;;;;;10355520;28;20080;-85
2023/08/15 23:46:48;;;;;;;0.88;0.57;;;;;;;;;;10340618;28;20110;-86
2023/08/15 23:51:53;;;;;;;;;;;;;;;;;;10358895;28;20046;-85
2023/08/15 23:56:56;;;;;;;1.37;0.80;;;;;;;;;;10358714;28;20403;-85
